sensor_id;sensor_type;location;lat;lon;timestamp;temperature;humidity
80495;DHT22;69819;48.798;11.770;2023-06-22T00:02:14;22.60;56.00
80495;DHT22;69819;48.798;11.770;2023-06-22T00:04:39;22.60;56.00
80495;DHT22;69819;48.798;11.770;2023-06-22T00:07:05;22.50;55.90
80495;DHT22;69819;48.798;11.770;2023-06-22T00:09:32;22.50;55.90
80495;DHT22;69819;48.798;11.770;2023-06-22T00:11:58;22.50;56.00
80495;DHT22;69819;48.798;11.770;2023-06-22T00:14:24;22.50;56.10
80495;DHT22;69819;48.798;11.770;2023-06-22T00:16:50;22.40;56.30
80495;DHT22;69819;48.798;11.770;2023-06-22T00:19:22;22.40;56.40
80495;DHT22;69819;48.798;11.770;2023-06-22T00:21:49;22.40;56.50
80495;DHT22;69819;48.798;11.770;2023-06-22T00:24:21;22.40;56.70
80495;DHT22;69819;48.798;11.770;2023-06-22T00:26:50;22.30;56.60
80495;DHT22;69819;48.798;11.770;2023-06-22T00:29:16;22.30;57.40
80495;DHT22;69819;48.798;11.770;2023-06-22T00:31:43;22.30;56.80
80495;DHT22;69819;48.798;11.770;2023-06-22T00:34:09;22.30;56.70
80495;DHT22;69819;48.798;11.770;2023-06-22T00:36:36;22.30;56.70
80495;DHT22;69819;48.798;11.770;2023-06-22T00:39:02;22.30;56.80
80495;DHT22;69819;48.798;11.770;2023-06-22T00:41:27;22.20;56.70
80495;DHT22;69819;48.798;11.770;2023-06-22T00:43:54;22.20;56.70
80495;DHT22;69819;48.798;11.770;2023-06-22T00:46:21;22.20;56.80
80495;DHT22;69819;48.798;11.770;2023-06-22T00:48:49;22.20;56.80
80495;DHT22;69819;48.798;11.770;2023-06-22T00:51:17;22.10;56.80
80495;DHT22;69819;48.798;11.770;2023-06-22T00:53:43;22.10;56.80
80495;DHT22;69819;48.798;11.770;2023-06-22T00:56:09;22.10;56.80
80495;DHT22;69819;48.798;11.770;2023-06-22T00:58:38;22.10;56.80
80495;DHT22;69819;48.798;11.770;2023-06-22T01:01:07;22.10;56.90
80495;DHT22;69819;48.798;11.770;2023-06-22T01:03:33;22.10;57.00
80495;DHT22;69819;48.798;11.770;2023-06-22T01:06:05;22.10;57.10
80495;DHT22;69819;48.798;11.770;2023-06-22T01:08:46;22.00;57.20
80495;DHT22;69819;48.798;11.770;2023-06-22T01:11:41;22.00;57.40
80495;DHT22;69819;48.798;11.770;2023-06-22T01:14:35;22.00;57.20
80495;DHT22;69819;48.798;11.770;2023-06-22T01:17:08;22.00;57.60
80495;DHT22;69819;48.798;11.770;2023-06-22T01:19:49;21.90;56.70
80495;DHT22;69819;48.798;11.770;2023-06-22T01:22:23;21.90;57.50
80495;DHT22;69819;48.798;11.770;2023-06-22T01:25:02;21.90;57.00
80495;DHT22;69819;48.798;11.770;2023-06-22T01:30:43;21.90;58.00
80495;DHT22;69819;48.798;11.770;2023-06-22T01:33:12;21.80;57.10
80495;DHT22;69819;48.798;11.770;2023-06-22T01:35:40;21.80;57.30
80495;DHT22;69819;48.798;11.770;2023-06-22T01:38:08;21.80;57.50
80495;DHT22;69819;48.798;11.770;2023-06-22T01:40:36;21.80;57.50
80495;DHT22;69819;48.798;11.770;2023-06-22T01:43:03;21.80;57.50
80495;DHT22;69819;48.798;11.770;2023-06-22T01:45:29;21.80;57.50
80495;DHT22;69819;48.798;11.770;2023-06-22T01:47:55;21.80;57.50
80495;DHT22;69819;48.798;11.770;2023-06-22T01:50:22;21.80;57.50
80495;DHT22;69819;48.798;11.770;2023-06-22T01:52:48;21.80;57.50
80495;DHT22;69819;48.798;11.770;2023-06-22T01:55:14;21.80;57.60
80495;DHT22;69819;48.798;11.770;2023-06-22T01:57:39;21.80;57.70
80495;DHT22;69819;48.798;11.770;2023-06-22T02:00:13;21.80;57.70
80495;DHT22;69819;48.798;11.770;2023-06-22T02:02:59;21.80;58.10
80495;DHT22;69819;48.798;11.770;2023-06-22T02:05:43;21.80;58.40
80495;DHT22;69819;48.798;11.770;2023-06-22T02:08:19;21.80;58.20
80495;DHT22;69819;48.798;11.770;2023-06-22T02:10:47;21.80;57.50
80495;DHT22;69819;48.798;11.770;2023-06-22T02:13:14;21.80;57.20
80495;DHT22;69819;48.798;11.770;2023-06-22T02:15:41;21.80;57.50
80495;DHT22;69819;48.798;11.770;2023-06-22T02:18:07;21.80;57.70
80495;DHT22;69819;48.798;11.770;2023-06-22T02:20:37;21.80;57.80
80495;DHT22;69819;48.798;11.770;2023-06-22T02:23:03;21.80;58.00
80495;DHT22;69819;48.798;11.770;2023-06-22T02:25:29;21.80;58.00
80495;DHT22;69819;48.798;11.770;2023-06-22T02:27:54;21.70;57.90
80495;DHT22;69819;48.798;11.770;2023-06-22T02:30:20;21.70;58.00
80495;DHT22;69819;48.798;11.770;2023-06-22T02:32:46;21.70;58.10
80495;DHT22;69819;48.798;11.770;2023-06-22T02:35:11;21.70;58.00
80495;DHT22;69819;48.798;11.770;2023-06-22T02:37:38;21.70;58.00
80495;DHT22;69819;48.798;11.770;2023-06-22T02:40:07;21.60;58.00
80495;DHT22;69819;48.798;11.770;2023-06-22T02:42:40;21.60;58.00
80495;DHT22;69819;48.798;11.770;2023-06-22T02:45:06;21.60;58.20
80495;DHT22;69819;48.798;11.770;2023-06-22T02:47:32;21.60;58.10
80495;DHT22;69819;48.798;11.770;2023-06-22T02:49:58;21.60;58.20
80495;DHT22;69819;48.798;11.770;2023-06-22T02:52:23;21.60;58.30
80495;DHT22;69819;48.798;11.770;2023-06-22T02:54:49;21.60;58.30
80495;DHT22;69819;48.798;11.770;2023-06-22T02:57:15;21.50;58.20
80495;DHT22;69819;48.798;11.770;2023-06-22T02:59:41;21.50;58.40
80495;DHT22;69819;48.798;11.770;2023-06-22T03:02:11;21.50;58.40
80495;DHT22;69819;48.798;11.770;2023-06-22T03:04:37;21.50;58.50
80495;DHT22;69819;48.798;11.770;2023-06-22T03:07:03;21.50;58.50
80495;DHT22;69819;48.798;11.770;2023-06-22T03:09:29;21.40;58.60
80495;DHT22;69819;48.798;11.770;2023-06-22T03:11:55;21.40;58.60
80495;DHT22;69819;48.798;11.770;2023-06-22T03:14:21;21.40;58.70
80495;DHT22;69819;48.798;11.770;2023-06-22T03:16:47;21.40;58.70
80495;DHT22;69819;48.798;11.770;2023-06-22T03:19:13;21.40;58.70
80495;DHT22;69819;48.798;11.770;2023-06-22T03:21:39;21.40;58.80
80495;DHT22;69819;48.798;11.770;2023-06-22T03:24:06;21.40;58.90
80495;DHT22;69819;48.798;11.770;2023-06-22T03:26:33;21.40;59.10
80495;DHT22;69819;48.798;11.770;2023-06-22T03:28:59;21.40;59.10
80495;DHT22;69819;48.798;11.770;2023-06-22T03:31:25;21.50;59.20
80495;DHT22;69819;48.798;11.770;2023-06-22T03:33:51;21.50;59.30
80495;DHT22;69819;48.798;11.770;2023-06-22T03:36:17;21.50;59.30
80495;DHT22;69819;48.798;11.770;2023-06-22T03:38:45;21.50;59.30
80495;DHT22;69819;48.798;11.770;2023-06-22T03:41:15;21.60;59.50
80495;DHT22;69819;48.798;11.770;2023-06-22T03:43:41;21.60;59.40
80495;DHT22;69819;48.798;11.770;2023-06-22T03:46:07;21.70;59.50
80495;DHT22;69819;48.798;11.770;2023-06-22T03:48:34;21.70;59.50
80495;DHT22;69819;48.798;11.770;2023-06-22T03:51:01;21.80;59.60
80495;DHT22;69819;48.798;11.770;2023-06-22T03:53:30;21.90;59.70
80495;DHT22;69819;48.798;11.770;2023-06-22T03:55:56;22.00;59.70
80495;DHT22;69819;48.798;11.770;2023-06-22T03:58:22;22.20;59.80
80495;DHT22;69819;48.798;11.770;2023-06-22T04:00:49;22.30;59.80
80495;DHT22;69819;48.798;11.770;2023-06-22T04:03:16;22.40;59.90
80495;DHT22;69819;48.798;11.770;2023-06-22T04:05:46;22.60;59.80
80495;DHT22;69819;48.798;11.770;2023-06-22T04:08:13;22.80;59.80
80495;DHT22;69819;48.798;11.770;2023-06-22T04:10:39;23.00;59.90
80495;DHT22;69819;48.798;11.770;2023-06-22T04:13:05;23.30;60.00
80495;DHT22;69819;48.798;11.770;2023-06-22T04:15:31;23.50;60.00
80495;DHT22;69819;48.798;11.770;2023-06-22T04:17:57;23.70;59.80
80495;DHT22;69819;48.798;11.770;2023-06-22T04:20:23;24.00;59.70
80495;DHT22;69819;48.798;11.770;2023-06-22T04:22:53;24.30;59.50
80495;DHT22;69819;48.798;11.770;2023-06-22T04:25:19;24.60;59.30
80495;DHT22;69819;48.798;11.770;2023-06-22T04:27:46;24.90;59.00
80495;DHT22;69819;48.798;11.770;2023-06-22T04:30:12;25.20;59.30
80495;DHT22;69819;48.798;11.770;2023-06-22T04:32:40;25.40;58.30
80495;DHT22;69819;48.798;11.770;2023-06-22T04:35:07;25.60;58.20
80495;DHT22;69819;48.798;11.770;2023-06-22T04:37:33;25.90;58.00
80495;DHT22;69819;48.798;11.770;2023-06-22T04:39:59;26.10;57.80
80495;DHT22;69819;48.798;11.770;2023-06-22T04:42:28;26.40;57.70
80495;DHT22;69819;48.798;11.770;2023-06-22T04:44:54;26.70;57.50
80495;DHT22;69819;48.798;11.770;2023-06-22T04:47:20;27.10;57.20
80495;DHT22;69819;48.798;11.770;2023-06-22T04:49:46;27.50;57.00
80495;DHT22;69819;48.798;11.770;2023-06-22T04:52:13;27.80;56.80
80495;DHT22;69819;48.798;11.770;2023-06-22T04:54:40;28.20;56.70
80495;DHT22;69819;48.798;11.770;2023-06-22T04:57:12;28.60;56.00
80495;DHT22;69819;48.798;11.770;2023-06-22T04:59:40;29.00;55.60
80495;DHT22;69819;48.798;11.770;2023-06-22T05:02:07;29.40;55.20
80495;DHT22;69819;48.798;11.770;2023-06-22T05:04:34;29.80;54.90
80495;DHT22;69819;48.798;11.770;2023-06-22T05:07:04;30.20;54.50
80495;DHT22;69819;48.798;11.770;2023-06-22T05:09:30;30.70;54.30
80495;DHT22;69819;48.798;11.770;2023-06-22T05:11:56;31.10;53.60
80495;DHT22;69819;48.798;11.770;2023-06-22T05:14:22;31.60;53.40
80495;DHT22;69819;48.798;11.770;2023-06-22T05:16:49;32.10;52.70
80495;DHT22;69819;48.798;11.770;2023-06-22T05:19:17;32.50;52.10
80495;DHT22;69819;48.798;11.770;2023-06-22T05:21:43;33.00;51.40
80495;DHT22;69819;48.798;11.770;2023-06-22T05:24:09;33.40;50.60
80495;DHT22;69819;48.798;11.770;2023-06-22T05:26:35;33.70;49.80
80495;DHT22;69819;48.798;11.770;2023-06-22T05:29:02;34.00;49.20
80495;DHT22;69819;48.798;11.770;2023-06-22T05:31:29;34.30;49.10
80495;DHT22;69819;48.798;11.770;2023-06-22T05:33:55;34.50;48.20
80495;DHT22;69819;48.798;11.770;2023-06-22T05:36:22;34.80;47.50
80495;DHT22;69819;48.798;11.770;2023-06-22T05:38:51;35.00;47.20
80495;DHT22;69819;48.798;11.770;2023-06-22T05:41:18;35.20;46.80
80495;DHT22;69819;48.798;11.770;2023-06-22T05:43:43;35.50;46.60
80495;DHT22;69819;48.798;11.770;2023-06-22T05:46:09;35.70;46.40
80495;DHT22;69819;48.798;11.770;2023-06-22T05:48:35;35.90;46.10
80495;DHT22;69819;48.798;11.770;2023-06-22T05:51:01;36.20;45.90
80495;DHT22;69819;48.798;11.770;2023-06-22T05:53:26;36.60;45.50
80495;DHT22;69819;48.798;11.770;2023-06-22T05:55:52;36.90;45.20
80495;DHT22;69819;48.798;11.770;2023-06-22T05:58:18;37.30;44.60
80495;DHT22;69819;48.798;11.770;2023-06-22T06:00:44;37.70;43.90
80495;DHT22;69819;48.798;11.770;2023-06-22T06:03:10;38.00;43.60
80495;DHT22;69819;48.798;11.770;2023-06-22T06:05:36;38.20;43.50
80495;DHT22;69819;48.798;11.770;2023-06-22T06:08:05;38.50;42.20
80495;DHT22;69819;48.798;11.770;2023-06-22T06:10:32;38.60;41.50
80495;DHT22;69819;48.798;11.770;2023-06-22T06:12:58;38.80;41.00
80495;DHT22;69819;48.798;11.770;2023-06-22T06:15:27;38.90;40.70
80495;DHT22;69819;48.798;11.770;2023-06-22T06:17:53;39.00;39.90
80495;DHT22;69819;48.798;11.770;2023-06-22T06:20:24;39.10;39.70
80495;DHT22;69819;48.798;11.770;2023-06-22T06:22:53;39.20;38.90
80495;DHT22;69819;48.798;11.770;2023-06-22T06:25:18;39.30;39.40
80495;DHT22;69819;48.798;11.770;2023-06-22T06:27:46;39.40;39.50
80495;DHT22;69819;48.798;11.770;2023-06-22T06:30:13;39.50;39.00
80495;DHT22;69819;48.798;11.770;2023-06-22T06:32:41;39.60;38.90
80495;DHT22;69819;48.798;11.770;2023-06-22T06:35:08;39.90;39.00
80495;DHT22;69819;48.798;11.770;2023-06-22T06:37:39;40.10;38.70
80495;DHT22;69819;48.798;11.770;2023-06-22T06:40:08;40.40;38.10
80495;DHT22;69819;48.798;11.770;2023-06-22T06:42:38;40.70;38.00
80495;DHT22;69819;48.798;11.770;2023-06-22T06:45:08;40.90;37.40
80495;DHT22;69819;48.798;11.770;2023-06-22T06:47:34;41.20;36.70
80495;DHT22;69819;48.798;11.770;2023-06-22T06:50:00;41.30;36.30
80495;DHT22;69819;48.798;11.770;2023-06-22T06:52:26;41.50;36.10
80495;DHT22;69819;48.798;11.770;2023-06-22T06:54:52;41.60;35.80
80495;DHT22;69819;48.798;11.770;2023-06-22T06:57:20;41.70;35.00
80495;DHT22;69819;48.798;11.770;2023-06-22T06:59:48;41.80;35.10
80495;DHT22;69819;48.798;11.770;2023-06-22T07:02:15;41.90;35.10
80495;DHT22;69819;48.798;11.770;2023-06-22T07:04:41;42.00;34.90
80495;DHT22;69819;48.798;11.770;2023-06-22T07:07:07;42.30;34.80
80495;DHT22;69819;48.798;11.770;2023-06-22T07:09:33;42.50;34.50
80495;DHT22;69819;48.798;11.770;2023-06-22T07:11:58;42.80;34.30
80495;DHT22;69819;48.798;11.770;2023-06-22T07:14:24;43.00;33.90
80495;DHT22;69819;48.798;11.770;2023-06-22T07:16:50;43.30;33.20
80495;DHT22;69819;48.798;11.770;2023-06-22T07:19:16;43.50;33.10
80495;DHT22;69819;48.798;11.770;2023-06-22T07:21:41;43.70;32.50
80495;DHT22;69819;48.798;11.770;2023-06-22T07:24:07;43.90;32.00
80495;DHT22;69819;48.798;11.770;2023-06-22T07:26:33;44.10;31.70
80495;DHT22;69819;48.798;11.770;2023-06-22T07:28:59;44.20;31.80
80495;DHT22;69819;48.798;11.770;2023-06-22T07:31:26;44.30;31.00
80495;DHT22;69819;48.798;11.770;2023-06-22T07:33:52;44.40;30.80
80495;DHT22;69819;48.798;11.770;2023-06-22T07:36:18;44.50;30.40
80495;DHT22;69819;48.798;11.770;2023-06-22T07:38:44;44.60;30.10
80495;DHT22;69819;48.798;11.770;2023-06-22T07:41:10;44.70;30.00
80495;DHT22;69819;48.798;11.770;2023-06-22T07:43:36;44.80;30.00
80495;DHT22;69819;48.798;11.770;2023-06-22T07:46:05;44.90;30.00
80495;DHT22;69819;48.798;11.770;2023-06-22T07:48:31;45.10;29.60
80495;DHT22;69819;48.798;11.770;2023-06-22T07:50:57;45.30;29.60
80495;DHT22;69819;48.798;11.770;2023-06-22T07:53:23;45.50;29.70
80495;DHT22;69819;48.798;11.770;2023-06-22T07:55:50;45.60;28.80
80495;DHT22;69819;48.798;11.770;2023-06-22T07:58:15;45.60;28.50
80495;DHT22;69819;48.798;11.770;2023-06-22T08:00:44;45.70;28.40
80495;DHT22;69819;48.798;11.770;2023-06-22T08:03:10;45.80;28.30
80495;DHT22;69819;48.798;11.770;2023-06-22T08:05:35;45.80;28.20
80495;DHT22;69819;48.798;11.770;2023-06-22T08:08:01;45.80;27.90
80495;DHT22;69819;48.798;11.770;2023-06-22T08:10:27;45.90;27.80
80495;DHT22;69819;48.798;11.770;2023-06-22T08:12:53;46.00;27.80
80495;DHT22;69819;48.798;11.770;2023-06-22T08:15:19;46.00;27.60
80495;DHT22;69819;48.798;11.770;2023-06-22T08:17:45;46.00;27.40
80495;DHT22;69819;48.798;11.770;2023-06-22T08:20:11;46.10;27.20
80495;DHT22;69819;48.798;11.770;2023-06-22T08:22:38;46.00;26.90
80495;DHT22;69819;48.798;11.770;2023-06-22T08:25:05;46.00;26.70
80495;DHT22;69819;48.798;11.770;2023-06-22T08:27:31;45.80;26.60
80495;DHT22;69819;48.798;11.770;2023-06-22T08:30:00;45.60;26.60
80495;DHT22;69819;48.798;11.770;2023-06-22T08:32:30;45.60;26.60
80495;DHT22;69819;48.798;11.770;2023-06-22T08:34:58;45.50;26.70
80495;DHT22;69819;48.798;11.770;2023-06-22T08:37:24;45.60;27.00
80495;DHT22;69819;48.798;11.770;2023-06-22T08:40:06;45.60;27.00
80495;DHT22;69819;48.798;11.770;2023-06-22T08:42:35;45.70;26.60
80495;DHT22;69819;48.798;11.770;2023-06-22T08:45:01;45.90;27.00
80495;DHT22;69819;48.798;11.770;2023-06-22T08:47:28;46.00;26.60
80495;DHT22;69819;48.798;11.770;2023-06-22T08:49:54;46.10;26.50
80495;DHT22;69819;48.798;11.770;2023-06-22T08:52:20;46.10;26.20
80495;DHT22;69819;48.798;11.770;2023-06-22T08:54:46;46.00;26.10
80495;DHT22;69819;48.798;11.770;2023-06-22T08:57:12;46.00;26.10
80495;DHT22;69819;48.798;11.770;2023-06-22T08:59:38;45.90;26.00
80495;DHT22;69819;48.798;11.770;2023-06-22T09:02:05;45.90;26.10
80495;DHT22;69819;48.798;11.770;2023-06-22T09:04:31;46.00;26.20
80495;DHT22;69819;48.798;11.770;2023-06-22T09:07:00;46.10;26.20
80495;DHT22;69819;48.798;11.770;2023-06-22T09:09:27;46.20;26.20
80495;DHT22;69819;48.798;11.770;2023-06-22T09:11:53;46.40;26.30
80495;DHT22;69819;48.798;11.770;2023-06-22T09:14:18;46.40;26.10
80495;DHT22;69819;48.798;11.770;2023-06-22T09:16:44;46.60;26.20
80495;DHT22;69819;48.798;11.770;2023-06-22T09:19:10;46.70;25.90
80495;DHT22;69819;48.798;11.770;2023-06-22T09:21:36;46.80;25.50
80495;DHT22;69819;48.798;11.770;2023-06-22T09:24:03;46.80;25.30
80495;DHT22;69819;48.798;11.770;2023-06-22T09:26:29;46.80;25.10
80495;DHT22;69819;48.798;11.770;2023-06-22T09:28:55;46.70;24.90
80495;DHT22;69819;48.798;11.770;2023-06-22T09:31:21;46.60;25.00
80495;DHT22;69819;48.798;11.770;2023-06-22T09:33:55;46.50;25.00
80495;DHT22;69819;48.798;11.770;2023-06-22T09:36:21;46.50;24.90
80495;DHT22;69819;48.798;11.770;2023-06-22T09:38:48;46.40;25.10
80495;DHT22;69819;48.798;11.770;2023-06-22T09:41:14;46.40;25.10
80495;DHT22;69819;48.798;11.770;2023-06-22T09:43:41;46.40;25.00
80495;DHT22;69819;48.798;11.770;2023-06-22T09:46:07;46.40;25.30
80495;DHT22;69819;48.798;11.770;2023-06-22T09:48:34;46.20;24.50
80495;DHT22;69819;48.798;11.770;2023-06-22T09:51:00;46.10;24.60
80495;DHT22;69819;48.798;11.770;2023-06-22T09:53:26;46.00;24.50
80495;DHT22;69819;48.798;11.770;2023-06-22T09:55:51;45.80;24.60
80495;DHT22;69819;48.798;11.770;2023-06-22T09:58:17;45.70;24.70
80495;DHT22;69819;48.798;11.770;2023-06-22T10:00:43;45.60;24.80
80495;DHT22;69819;48.798;11.770;2023-06-22T10:03:09;45.50;24.90
80495;DHT22;69819;48.798;11.770;2023-06-22T10:05:34;45.40;24.70
80495;DHT22;69819;48.798;11.770;2023-06-22T10:08:00;45.30;24.60
80495;DHT22;69819;48.798;11.770;2023-06-22T10:10:26;45.30;24.60
80495;DHT22;69819;48.798;11.770;2023-06-22T10:12:56;45.20;24.50
80495;DHT22;69819;48.798;11.770;2023-06-22T10:15:27;45.00;24.10
80495;DHT22;69819;48.798;11.770;2023-06-22T10:17:53;44.80;24.20
80495;DHT22;69819;48.798;11.770;2023-06-22T10:20:19;44.60;24.40
80495;DHT22;69819;48.798;11.770;2023-06-22T10:22:46;44.30;24.40
80495;DHT22;69819;48.798;11.770;2023-06-22T10:25:12;44.00;24.50
80495;DHT22;69819;48.798;11.770;2023-06-22T10:27:39;43.70;24.60
80495;DHT22;69819;48.798;11.770;2023-06-22T10:30:11;43.50;24.80
80495;DHT22;69819;48.798;11.770;2023-06-22T10:32:38;43.30;24.80
80495;DHT22;69819;48.798;11.770;2023-06-22T10:35:05;43.00;25.00
80495;DHT22;69819;48.798;11.770;2023-06-22T10:37:31;42.70;25.10
80495;DHT22;69819;48.798;11.770;2023-06-22T10:39:57;42.50;25.30
80495;DHT22;69819;48.798;11.770;2023-06-22T10:42:23;42.20;25.40
80495;DHT22;69819;48.798;11.770;2023-06-22T10:44:49;41.90;25.40
80495;DHT22;69819;48.798;11.770;2023-06-22T10:47:15;41.60;25.60
80495;DHT22;69819;48.798;11.770;2023-06-22T10:49:41;41.10;25.70
80495;DHT22;69819;48.798;11.770;2023-06-22T10:52:08;40.80;25.90
80495;DHT22;69819;48.798;11.770;2023-06-22T10:54:35;40.30;26.10
80495;DHT22;69819;48.798;11.770;2023-06-22T10:57:02;40.00;26.50
80495;DHT22;69819;48.798;11.770;2023-06-22T10:59:28;39.70;26.90
80495;DHT22;69819;48.798;11.770;2023-06-22T11:01:58;39.30;27.20
80495;DHT22;69819;48.798;11.770;2023-06-22T11:04:24;39.10;27.40
80495;DHT22;69819;48.798;11.770;2023-06-22T11:06:51;38.90;27.50
80495;DHT22;69819;48.798;11.770;2023-06-22T11:09:17;38.70;27.60
80495;DHT22;69819;48.798;11.770;2023-06-22T11:11:50;38.50;27.90
80495;DHT22;69819;48.798;11.770;2023-06-22T11:14:19;38.40;28.20
80495;DHT22;69819;48.798;11.770;2023-06-22T11:16:45;38.20;28.30
80495;DHT22;69819;48.798;11.770;2023-06-22T11:19:12;38.20;28.50
80495;DHT22;69819;48.798;11.770;2023-06-22T11:21:38;38.10;28.60
80495;DHT22;69819;48.798;11.770;2023-06-22T11:24:04;38.10;28.70
80495;DHT22;69819;48.798;11.770;2023-06-22T11:26:30;38.00;28.90
80495;DHT22;69819;48.798;11.770;2023-06-22T11:28:57;38.00;28.90
80495;DHT22;69819;48.798;11.770;2023-06-22T11:31:23;37.90;29.00
80495;DHT22;69819;48.798;11.770;2023-06-22T11:33:49;38.00;29.10
80495;DHT22;69819;48.798;11.770;2023-06-22T11:36:16;38.00;29.20
80495;DHT22;69819;48.798;11.770;2023-06-22T11:38:42;38.10;29.80
80495;DHT22;69819;48.798;11.770;2023-06-22T11:41:09;38.10;29.30
80495;DHT22;69819;48.798;11.770;2023-06-22T11:43:36;38.20;29.40
80495;DHT22;69819;48.798;11.770;2023-06-22T11:46:03;38.20;29.40
80495;DHT22;69819;48.798;11.770;2023-06-22T11:48:30;38.30;29.10
80495;DHT22;69819;48.798;11.770;2023-06-22T11:50:56;38.30;29.20
80495;DHT22;69819;48.798;11.770;2023-06-22T11:53:24;38.30;29.20
80495;DHT22;69819;48.798;11.770;2023-06-22T11:55:51;38.20;29.20
80495;DHT22;69819;48.798;11.770;2023-06-22T11:58:18;38.20;29.20
80495;DHT22;69819;48.798;11.770;2023-06-22T12:00:43;38.20;29.10
80495;DHT22;69819;48.798;11.770;2023-06-22T12:03:10;38.10;29.20
80495;DHT22;69819;48.798;11.770;2023-06-22T12:05:37;38.10;29.40
80495;DHT22;69819;48.798;11.770;2023-06-22T12:08:03;38.10;29.30
80495;DHT22;69819;48.798;11.770;2023-06-22T12:10:29;38.10;29.40
80495;DHT22;69819;48.798;11.770;2023-06-22T12:12:56;38.00;29.50
80495;DHT22;69819;48.798;11.770;2023-06-22T12:15:26;38.00;29.50
80495;DHT22;69819;48.798;11.770;2023-06-22T12:17:52;38.00;29.60
80495;DHT22;69819;48.798;11.770;2023-06-22T12:20:18;38.00;29.70
80495;DHT22;69819;48.798;11.770;2023-06-22T12:22:44;38.00;29.60
80495;DHT22;69819;48.798;11.770;2023-06-22T12:25:11;38.00;29.60
80495;DHT22;69819;48.798;11.770;2023-06-22T12:27:37;38.10;29.40
80495;DHT22;69819;48.798;11.770;2023-06-22T12:30:04;38.10;29.20
80495;DHT22;69819;48.798;11.770;2023-06-22T12:32:30;38.00;29.20
80495;DHT22;69819;48.798;11.770;2023-06-22T12:34:56;38.00;29.20
80495;DHT22;69819;48.798;11.770;2023-06-22T12:37:23;38.00;29.30
80495;DHT22;69819;48.798;11.770;2023-06-22T12:39:49;37.90;29.20
80495;DHT22;69819;48.798;11.770;2023-06-22T12:42:16;37.90;29.30
80495;DHT22;69819;48.798;11.770;2023-06-22T12:44:42;37.80;29.40
80495;DHT22;69819;48.798;11.770;2023-06-22T12:47:08;37.80;29.40
80495;DHT22;69819;48.798;11.770;2023-06-22T12:49:38;37.80;29.50
80495;DHT22;69819;48.798;11.770;2023-06-22T12:52:09;37.80;29.50
80495;DHT22;69819;48.798;11.770;2023-06-22T12:54:36;37.90;29.60
80495;DHT22;69819;48.798;11.770;2023-06-22T12:57:02;37.90;29.80
80495;DHT22;69819;48.798;11.770;2023-06-22T12:59:28;38.00;29.80
80495;DHT22;69819;48.798;11.770;2023-06-22T13:01:54;38.00;29.60
80495;DHT22;69819;48.798;11.770;2023-06-22T13:04:20;38.10;29.80
80495;DHT22;69819;48.798;11.770;2023-06-22T13:06:46;38.20;29.90
80495;DHT22;69819;48.798;11.770;2023-06-22T13:09:13;38.30;29.80
80495;DHT22;69819;48.798;11.770;2023-06-22T13:11:41;38.30;29.70
80495;DHT22;69819;48.798;11.770;2023-06-22T13:14:08;38.40;29.70
80495;DHT22;69819;48.798;11.770;2023-06-22T13:16:34;38.50;29.70
80495;DHT22;69819;48.798;11.770;2023-06-22T13:19:00;38.60;29.50
80495;DHT22;69819;48.798;11.770;2023-06-22T13:21:25;38.70;29.50
80495;DHT22;69819;48.798;11.770;2023-06-22T13:23:51;38.80;29.40
80495;DHT22;69819;48.798;11.770;2023-06-22T13:26:17;38.90;29.50
80495;DHT22;69819;48.798;11.770;2023-06-22T13:28:43;39.00;29.30
80495;DHT22;69819;48.798;11.770;2023-06-22T13:31:10;39.00;29.40
80495;DHT22;69819;48.798;11.770;2023-06-22T13:33:37;39.00;29.50
80495;DHT22;69819;48.798;11.770;2023-06-22T13:36:03;39.10;29.40
80495;DHT22;69819;48.798;11.770;2023-06-22T13:38:31;39.10;29.20
80495;DHT22;69819;48.798;11.770;2023-06-22T13:40:57;39.10;29.00
80495;DHT22;69819;48.798;11.770;2023-06-22T13:43:26;39.10;29.20
80495;DHT22;69819;48.798;11.770;2023-06-22T13:45:52;39.00;29.20
80495;DHT22;69819;48.798;11.770;2023-06-22T13:48:18;39.00;29.20
80495;DHT22;69819;48.798;11.770;2023-06-22T13:50:44;39.00;29.40
80495;DHT22;69819;48.798;11.770;2023-06-22T13:53:09;39.10;29.40
80495;DHT22;69819;48.798;11.770;2023-06-22T13:55:35;39.10;29.40
80495;DHT22;69819;48.798;11.770;2023-06-22T13:58:01;39.10;29.50
80495;DHT22;69819;48.798;11.770;2023-06-22T14:00:27;39.20;29.50
80495;DHT22;69819;48.798;11.770;2023-06-22T14:02:53;39.30;29.50
80495;DHT22;69819;48.798;11.770;2023-06-22T14:05:20;39.50;29.40
80495;DHT22;69819;48.798;11.770;2023-06-22T14:07:45;39.50;29.20
80495;DHT22;69819;48.798;11.770;2023-06-22T14:10:11;39.60;29.50
80495;DHT22;69819;48.798;11.770;2023-06-22T14:12:38;39.60;28.80
80495;DHT22;69819;48.798;11.770;2023-06-22T14:15:04;39.70;28.80
80495;DHT22;69819;48.798;11.770;2023-06-22T14:17:30;39.80;28.60
80495;DHT22;69819;48.798;11.770;2023-06-22T14:19:56;39.80;28.60
80495;DHT22;69819;48.798;11.770;2023-06-22T14:22:22;39.80;28.60
80495;DHT22;69819;48.798;11.770;2023-06-22T14:24:48;39.70;28.60
80495;DHT22;69819;48.798;11.770;2023-06-22T14:27:15;39.70;28.50
80495;DHT22;69819;48.798;11.770;2023-06-22T14:29:41;39.60;28.60
80495;DHT22;69819;48.798;11.770;2023-06-22T14:32:08;39.60;28.80
80495;DHT22;69819;48.798;11.770;2023-06-22T14:34:34;39.60;28.80
80495;DHT22;69819;48.798;11.770;2023-06-22T14:37:02;39.50;28.80
80495;DHT22;69819;48.798;11.770;2023-06-22T14:39:28;39.50;28.70
80495;DHT22;69819;48.798;11.770;2023-06-22T14:41:54;39.50;28.60
80495;DHT22;69819;48.798;11.770;2023-06-22T14:44:20;39.50;28.40
80495;DHT22;69819;48.798;11.770;2023-06-22T14:46:45;39.40;28.20
80495;DHT22;69819;48.798;11.770;2023-06-22T14:49:11;39.40;28.20
80495;DHT22;69819;48.798;11.770;2023-06-22T14:51:37;39.40;28.60
80495;DHT22;69819;48.798;11.770;2023-06-22T14:54:03;39.30;28.20
80495;DHT22;69819;48.798;11.770;2023-06-22T14:56:28;39.30;28.40
80495;DHT22;69819;48.798;11.770;2023-06-22T14:58:55;39.20;28.30
80495;DHT22;69819;48.798;11.770;2023-06-22T15:01:21;39.20;28.40
80495;DHT22;69819;48.798;11.770;2023-06-22T15:03:47;39.10;28.50
80495;DHT22;69819;48.798;11.770;2023-06-22T15:06:12;39.10;28.30
80495;DHT22;69819;48.798;11.770;2023-06-22T15:08:39;39.00;28.30
80495;DHT22;69819;48.798;11.770;2023-06-22T15:11:06;38.90;28.20
80495;DHT22;69819;48.798;11.770;2023-06-22T15:13:33;38.90;28.40
80495;DHT22;69819;48.798;11.770;2023-06-22T15:16:00;38.80;28.50
80495;DHT22;69819;48.798;11.770;2023-06-22T15:18:28;38.80;28.90